createdAt,value
2023-02-14T00:09:24.389Z,4.80
2023-02-14T00:19:26.306Z,4.80
2023-02-14T00:29:31.259Z,4.80
2023-02-14T00:39:32.941Z,4.80
2023-02-14T00:49:34.655Z,4.80
2023-02-14T01:19:42.447Z,4.70
2023-02-14T01:29:44.182Z,4.80
2023-02-14T01:39:45.884Z,4.70
2023-02-14T01:49:56.172Z,4.70
2023-02-14T02:00:20.533Z,4.80
2023-02-14T02:20:24.309Z,4.80
2023-02-14T02:38:23.120Z,4.80
2023-02-14T02:48:40.874Z,4.70
2023-02-14T02:58:48.412Z,4.70
2023-02-14T03:08:50.117Z,4.70
2023-02-14T03:19:28.314Z,4.80
2023-02-14T03:29:53.964Z,4.80
2023-02-14T03:40:06.390Z,4.80
2023-02-14T03:50:17.231Z,4.80
2023-02-14T04:00:19.619Z,5.00
2023-02-14T04:10:21.960Z,4.90
2023-02-14T04:30:25.806Z,5.00
2023-02-14T04:40:27.786Z,4.90
2023-02-14T04:50:29.531Z,5.00
2023-02-14T05:20:35.531Z,4.90
2023-02-14T05:30:38.507Z,5.00
2023-02-14T05:40:41.147Z,4.90
2023-02-14T06:00:46.962Z,4.80
2023-02-14T06:10:48.687Z,4.70
2023-02-14T06:20:53.562Z,4.80
2023-02-14T06:41:04.099Z,4.90
2023-02-14T07:31:19.873Z,4.20
2023-02-14T07:51:23.716Z,4.90
2023-02-14T08:39:00.220Z,5.00
2023-02-14T08:59:04.202Z,5.10
2023-02-14T09:09:06.454Z,5.10
2023-02-14T09:19:08.111Z,5.20
2023-02-14T09:29:11.960Z,5.20
2023-02-14T09:39:13.622Z,5.30
2023-02-14T09:49:19.146Z,5.40
2023-02-14T09:59:34.365Z,5.40
2023-02-14T10:10:03.218Z,5.50
2023-02-14T10:20:16.663Z,5.60
2023-02-14T10:30:21.402Z,5.60
2023-02-14T10:41:37.708Z,5.60
2023-02-14T10:51:48.461Z,5.80
2023-02-14T11:01:55.258Z,5.80
2023-02-14T11:12:00.096Z,5.80
2023-02-14T11:22:04.879Z,5.80
2023-02-14T11:32:14.457Z,5.70
2023-02-14T11:43:02.131Z,5.80
2023-02-14T11:53:19.734Z,5.90
2023-02-14T12:03:22.145Z,6.00
2023-02-14T12:13:26.079Z,6.00
2023-02-14T12:23:42.559Z,6.10
2023-02-14T12:33:46.379Z,6.20
2023-02-14T12:44:05.878Z,6.10
2023-02-14T12:54:43.029Z,6.30
2023-02-14T13:05:15.896Z,6.30
2023-02-14T13:15:48.394Z,6.20
2023-02-14T13:25:59.690Z,6.20
2023-02-14T13:36:03.714Z,6.20
2023-02-14T13:46:05.486Z,6.30
2023-02-14T13:56:13.304Z,6.10
2023-02-14T14:06:15.069Z,6.10
2023-02-14T14:16:26.684Z,6.20
2023-02-14T14:26:36.213Z,6.20
2023-02-14T14:46:40.064Z,6.20
2023-02-14T14:56:53.058Z,6.20
2023-02-14T15:06:57.288Z,6.20
2023-02-14T15:17:17.251Z,6.20
2023-02-14T15:27:23.470Z,6.10
2023-02-14T15:37:25.935Z,6.00
2023-02-14T15:47:27.637Z,6.10
2023-02-14T15:57:30.144Z,5.90
2023-02-14T16:07:31.979Z,6.00
2023-02-14T16:17:35.312Z,5.90
2023-02-14T16:27:36.970Z,5.90
2023-02-14T16:37:38.823Z,5.90
2023-02-14T16:47:40.495Z,5.80
2023-02-14T16:57:45.762Z,5.80
2023-02-14T17:17:52.573Z,5.90
2023-02-14T17:27:56.290Z,5.80
2023-02-14T17:58:03.307Z,5.80
2023-02-14T18:33:00.492Z,5.80
2023-02-14T18:43:02.983Z,5.80
2023-02-14T18:53:04.729Z,5.70
2023-02-14T19:03:07.640Z,5.80
2023-02-14T19:22:16.311Z,5.70
2023-02-14T19:32:18.046Z,5.70
2023-02-14T19:42:19.773Z,5.70
2023-02-14T19:52:26.689Z,5.60
2023-02-14T20:02:28.688Z,5.60
2023-02-14T20:12:30.461Z,5.60
2023-02-14T20:22:32.237Z,5.50
2023-02-14T20:32:35.159Z,5.40
2023-02-14T20:42:39.555Z,5.50
2023-02-14T20:52:41.182Z,5.40
2023-02-14T21:02:42.800Z,5.40
2023-02-14T21:12:44.475Z,5.40
2023-02-14T21:32:35.548Z,5.40
2023-02-14T21:42:37.171Z,5.50
2023-02-14T21:52:38.820Z,5.40
2023-02-14T22:02:41.693Z,5.30
2023-02-14T22:12:43.508Z,5.30
2023-02-14T22:22:45.130Z,5.30
2023-02-14T22:32:46.876Z,5.30
2023-02-14T22:42:48.573Z,5.30
2023-02-14T23:23:15.166Z,5.30
2023-02-14T23:33:16.784Z,5.20
2023-02-14T23:43:18.453Z,5.10
